New Memphis, Illinois
Current Conditions -  °F | °C
As of 5:58 PM on Friday 19 Dec 2014 (Local Time) from KBLV Reporting Station
Overcast Overcast  
Wind Chill: 35°   Ceiling: 6000
Heat Index: 35°   Visibility: 10mi
Dew Point: 30°   Wind: 2mph
Humidity: 82%   Direction: 80°E
Pressure: 30.28"   Gusts: NA
Location:  38.48°N, 89.68°W
Report Text: KBLV 192358Z AUTO 08002KT 10SM SCT035 OVC060 02/M01 A3028 RMK AO2 SLP262 T00151012 10022 20015 51003 $
Loading
Personal Weather Stations






























Interactive Weather Map New forecast layout! Learn more

10-Day Weather Forecast

Advertisements
Track Severe Weather on mobile